sensor_id;sensor_type;location;lat;lon;timestamp;pressure;altitude;pressure_sealevel;temperature;humidity
34506;BME280;20748;42.632;23.198;2022-10-30T00:00:27;92801.81;;;7.05;81.72
34506;BME280;20748;42.632;23.198;2022-10-30T00:02:59;92806.22;;;7.05;82.21
34506;BME280;20748;42.632;23.198;2022-10-30T00:05:33;92805.44;;;6.99;81.46
34506;BME280;20748;42.632;23.198;2022-10-30T00:08:06;92802.56;;;6.95;81.95
34506;BME280;20748;42.632;23.198;2022-10-30T00:10:39;92795.81;;;6.94;81.00
34506;BME280;20748;42.632;23.198;2022-10-30T00:13:12;92803.88;;;6.98;81.04
34506;BME280;20748;42.632;23.198;2022-10-30T00:15:50;92803.09;;;6.97;81.20
34506;BME280;20748;42.632;23.198;2022-10-30T00:18:22;92810.88;;;6.97;80.84
34506;BME280;20748;42.632;23.198;2022-10-30T00:20:55;92806.69;;;6.86;80.66
34506;BME280;20748;42.632;23.198;2022-10-30T00:23:27;92798.13;;;6.80;81.16
34506;BME280;20748;42.632;23.198;2022-10-30T00:26:04;92805.34;;;6.78;81.35
34506;BME280;20748;42.632;23.198;2022-10-30T00:28:37;92805.31;;;6.73;82.05
34506;BME280;20748;42.632;23.198;2022-10-30T00:31:09;92800.91;;;6.68;82.73
34506;BME280;20748;42.632;23.198;2022-10-30T00:33:42;92797.03;;;6.71;83.73
34506;BME280;20748;42.632;23.198;2022-10-30T00:36:15;92790.81;;;6.77;83.70
34506;BME280;20748;42.632;23.198;2022-10-30T00:38:47;92792.13;;;6.80;83.49
34506;BME280;20748;42.632;23.198;2022-10-30T00:41:21;92791.88;;;6.76;83.76
34506;BME280;20748;42.632;23.198;2022-10-30T00:43:54;92789.47;;;6.59;83.74
34506;BME280;20748;42.632;23.198;2022-10-30T00:46:29;92784.53;;;6.57;84.48
34506;BME280;20748;42.632;23.198;2022-10-30T00:49:07;92782.09;;;6.35;83.94
34506;BME280;20748;42.632;23.198;2022-10-30T00:51:45;92776.94;;;6.40;83.82
34506;BME280;20748;42.632;23.198;2022-10-30T00:54:19;92780.03;;;6.37;83.98
34506;BME280;20748;42.632;23.198;2022-10-30T00:56:52;92776.66;;;6.37;84.65
34506;BME280;20748;42.632;23.198;2022-10-30T00:59:29;92774.88;;;6.42;84.50
34506;BME280;20748;42.632;23.198;2022-10-30T01:02:04;92774.34;;;6.40;84.92
34506;BME280;20748;42.632;23.198;2022-10-30T01:04:40;92769.16;;;6.40;85.22
34506;BME280;20748;42.632;23.198;2022-10-30T01:07:15;92764.50;;;6.42;85.39
34506;BME280;20748;42.632;23.198;2022-10-30T01:09:47;92764.25;;;6.49;85.31
34506;BME280;20748;42.632;23.198;2022-10-30T01:12:20;92762.72;;;6.48;84.86
34506;BME280;20748;42.632;23.198;2022-10-30T01:14:55;92762.13;;;6.36;85.51
34506;BME280;20748;42.632;23.198;2022-10-30T01:17:50;92765.56;;;6.41;85.25
34506;BME280;20748;42.632;23.198;2022-10-30T01:20:52;92754.84;;;6.22;85.69
34506;BME280;20748;42.632;23.198;2022-10-30T01:23:35;92740.81;;;6.18;86.37
34506;BME280;20748;42.632;23.198;2022-10-30T01:26:16;92746.03;;;6.28;86.03
34506;BME280;20748;42.632;23.198;2022-10-30T01:29:02;92743.66;;;6.16;86.16
34506;BME280;20748;42.632;23.198;2022-10-30T01:31:47;92738.53;;;6.27;86.35
34506;BME280;20748;42.632;23.198;2022-10-30T01:34:30;92731.75;;;6.21;86.20
34506;BME280;20748;42.632;23.198;2022-10-30T01:37:09;92732.50;;;6.16;86.92
34506;BME280;20748;42.632;23.198;2022-10-30T01:39:45;92737.97;;;6.20;86.89
34506;BME280;20748;42.632;23.198;2022-10-30T01:42:44;92733.25;;;6.11;86.93
34506;BME280;20748;42.632;23.198;2022-10-30T01:45:26;92736.94;;;6.21;87.40
34506;BME280;20748;42.632;23.198;2022-10-30T01:48:17;92729.94;;;6.16;87.75
34506;BME280;20748;42.632;23.198;2022-10-30T01:51:04;92731.22;;;6.18;87.87
34506;BME280;20748;42.632;23.198;2022-10-30T01:53:48;92728.38;;;6.20;88.19
34506;BME280;20748;42.632;23.198;2022-10-30T01:56:29;92731.53;;;6.27;88.15
34506;BME280;20748;42.632;23.198;2022-10-30T01:59:13;92725.25;;;6.18;87.97
34506;BME280;20748;42.632;23.198;2022-10-30T02:01:47;92724.78;;;6.21;88.16
34506;BME280;20748;42.632;23.198;2022-10-30T02:04:20;92726.53;;;6.15;88.28
34506;BME280;20748;42.632;23.198;2022-10-30T02:06:55;92723.75;;;6.27;87.73
34506;BME280;20748;42.632;23.198;2022-10-30T02:09:28;92716.22;;;6.26;87.88
34506;BME280;20748;42.632;23.198;2022-10-30T02:12:02;92716.47;;;6.24;88.63
34506;BME280;20748;42.632;23.198;2022-10-30T02:14:38;92718.28;;;6.18;88.28
34506;BME280;20748;42.632;23.198;2022-10-30T02:17:13;92717.00;;;6.26;88.53
34506;BME280;20748;42.632;23.198;2022-10-30T02:19:46;92713.34;;;6.17;89.50
34506;BME280;20748;42.632;23.198;2022-10-30T02:22:19;92705.59;;;6.22;89.82
34506;BME280;20748;42.632;23.198;2022-10-30T02:24:51;92707.63;;;6.20;88.98
34506;BME280;20748;42.632;23.198;2022-10-30T02:27:28;92711.00;;;6.15;89.39
34506;BME280;20748;42.632;23.198;2022-10-30T02:30:00;92717.19;;;6.09;89.52
34506;BME280;20748;42.632;23.198;2022-10-30T02:32:33;92692.75;;;5.95;90.08
34506;BME280;20748;42.632;23.198;2022-10-30T02:35:06;92707.09;;;6.13;90.36
34506;BME280;20748;42.632;23.198;2022-10-30T02:37:39;92706.59;;;6.11;90.06
34506;BME280;20748;42.632;23.198;2022-10-30T02:40:12;92700.38;;;6.12;90.71
34506;BME280;20748;42.632;23.198;2022-10-30T02:42:44;92701.91;;;6.13;90.31
34506;BME280;20748;42.632;23.198;2022-10-30T02:45:22;92701.38;;;6.06;90.91
34506;BME280;20748;42.632;23.198;2022-10-30T02:47:54;92697.41;;;5.98;91.03
34506;BME280;20748;42.632;23.198;2022-10-30T02:50:27;92710.69;;;6.07;91.05
34506;BME280;20748;42.632;23.198;2022-10-30T02:53:00;92707.53;;;5.99;91.36
34506;BME280;20748;42.632;23.198;2022-10-30T02:55:33;92711.72;;;6.06;91.23
34506;BME280;20748;42.632;23.198;2022-10-30T02:58:05;92708.38;;;6.10;91.57
34506;BME280;20748;42.632;23.198;2022-10-30T03:00:38;92710.22;;;6.15;92.17
34506;BME280;20748;42.632;23.198;2022-10-30T03:03:10;92704.81;;;6.22;91.91
34506;BME280;20748;42.632;23.198;2022-10-30T03:05:42;92705.63;;;6.27;93.10
34506;BME280;20748;42.632;23.198;2022-10-30T03:08:16;92712.03;;;6.14;92.16
34506;BME280;20748;42.632;23.198;2022-10-30T03:10:48;92712.53;;;6.11;92.36
34506;BME280;20748;42.632;23.198;2022-10-30T03:13:20;92712.25;;;6.08;92.27
34506;BME280;20748;42.632;23.198;2022-10-30T03:15:58;92713.28;;;6.07;93.14
34506;BME280;20748;42.632;23.198;2022-10-30T03:18:31;92717.63;;;5.96;93.25
34506;BME280;20748;42.632;23.198;2022-10-30T03:21:08;92721.97;;;5.90;93.59
34506;BME280;20748;42.632;23.198;2022-10-30T03:23:42;92716.59;;;5.97;94.01
34506;BME280;20748;42.632;23.198;2022-10-30T03:26:15;92723.06;;;5.99;95.23
34506;BME280;20748;42.632;23.198;2022-10-30T03:29:02;92719.66;;;5.94;95.77
34506;BME280;20748;42.632;23.198;2022-10-30T03:31:34;92725.41;;;6.01;96.23
34506;BME280;20748;42.632;23.198;2022-10-30T03:34:20;92723.16;;;6.10;97.67
34506;BME280;20748;42.632;23.198;2022-10-30T03:36:52;92725.06;;;6.30;100.00
34506;BME280;20748;42.632;23.198;2022-10-30T03:39:26;92719.41;;;6.43;100.00
34506;BME280;20748;42.632;23.198;2022-10-30T03:41:58;92714.69;;;6.35;100.00
34506;BME280;20748;42.632;23.198;2022-10-30T03:44:31;92720.97;;;6.50;100.00
34506;BME280;20748;42.632;23.198;2022-10-30T03:47:04;92712.25;;;6.71;100.00
34506;BME280;20748;42.632;23.198;2022-10-30T03:49:44;92713.44;;;6.48;100.00
34506;BME280;20748;42.632;23.198;2022-10-30T03:52:21;92718.44;;;6.60;100.00
34506;BME280;20748;42.632;23.198;2022-10-30T03:54:54;92716.63;;;6.71;99.96
34506;BME280;20748;42.632;23.198;2022-10-30T03:57:27;92713.28;;;6.81;98.86
34506;BME280;20748;42.632;23.198;2022-10-30T04:00:23;92719.25;;;6.81;97.83
34506;BME280;20748;42.632;23.198;2022-10-30T04:03:05;92718.22;;;6.82;98.53
34506;BME280;20748;42.632;23.198;2022-10-30T04:05:40;92711.50;;;6.97;100.00
34506;BME280;20748;42.632;23.198;2022-10-30T04:08:14;92703.72;;;7.02;100.00
34506;BME280;20748;42.632;23.198;2022-10-30T04:10:47;92697.75;;;7.22;100.00
34506;BME280;20748;42.632;23.198;2022-10-30T04:13:20;92701.16;;;7.33;100.00
34506;BME280;20748;42.632;23.198;2022-10-30T04:15:56;92688.16;;;7.18;100.00
34506;BME280;20748;42.632;23.198;2022-10-30T04:18:30;92699.06;;;7.20;98.21
34506;BME280;20748;42.632;23.198;2022-10-30T04:21:03;92697.75;;;7.22;95.28
34506;BME280;20748;42.632;23.198;2022-10-30T04:23:38;92701.91;;;7.23;94.67
34506;BME280;20748;42.632;23.198;2022-10-30T04:26:11;92702.19;;;7.27;94.22
34506;BME280;20748;42.632;23.198;2022-10-30T04:28:46;92693.88;;;7.30;93.87
34506;BME280;20748;42.632;23.198;2022-10-30T04:31:19;92704.25;;;7.25;95.32
34506;BME280;20748;42.632;23.198;2022-10-30T04:33:51;92695.44;;;7.26;95.52
34506;BME280;20748;42.632;23.198;2022-10-30T04:36:25;92698.81;;;7.27;95.48
34506;BME280;20748;42.632;23.198;2022-10-30T04:39:01;92701.91;;;7.23;95.15
34506;BME280;20748;42.632;23.198;2022-10-30T04:41:35;92704.50;;;7.23;94.84
34506;BME280;20748;42.632;23.198;2022-10-30T04:44:15;92696.47;;;7.20;94.96
34506;BME280;20748;42.632;23.198;2022-10-30T04:46:47;92693.88;;;7.20;95.11
34506;BME280;20748;42.632;23.198;2022-10-30T04:49:19;92692.06;;;7.20;94.39
34506;BME280;20748;42.632;23.198;2022-10-30T04:51:52;92694.91;;;7.19;94.81
34506;BME280;20748;42.632;23.198;2022-10-30T04:54:25;92695.16;;;7.17;94.82
34506;BME280;20748;42.632;23.198;2022-10-30T04:57:00;92698.56;;;7.18;94.82
34506;BME280;20748;42.632;23.198;2022-10-30T04:59:32;92701.66;;;7.20;95.06
34506;BME280;20748;42.632;23.198;2022-10-30T05:02:05;92698.03;;;7.10;95.20
34506;BME280;20748;42.632;23.198;2022-10-30T05:04:37;92705.56;;;7.07;95.30
34506;BME280;20748;42.632;23.198;2022-10-30T05:07:10;92706.84;;;6.99;95.07
34506;BME280;20748;42.632;23.198;2022-10-30T05:09:43;92708.41;;;7.00;95.04
34506;BME280;20748;42.632;23.198;2022-10-30T05:12:16;92706.06;;;7.04;94.66
34506;BME280;20748;42.632;23.198;2022-10-30T05:14:57;92708.16;;;7.07;94.51
34506;BME280;20748;42.632;23.198;2022-10-30T05:17:29;92713.06;;;7.08;94.27
34506;BME280;20748;42.632;23.198;2022-10-30T05:20:07;92710.47;;;6.98;94.13
34506;BME280;20748;42.632;23.198;2022-10-30T05:22:40;92711.50;;;6.97;94.17
34506;BME280;20748;42.632;23.198;2022-10-30T05:25:12;92718.00;;;6.94;94.26
34506;BME280;20748;42.632;23.198;2022-10-30T05:27:47;92715.91;;;6.96;94.12
34506;BME280;20748;42.632;23.198;2022-10-30T05:30:19;92724.22;;;6.98;94.01
34506;BME280;20748;42.632;23.198;2022-10-30T05:32:56;92724.22;;;7.04;93.92
34506;BME280;20748;42.632;23.198;2022-10-30T05:35:30;92726.56;;;7.05;93.94
34506;BME280;20748;42.632;23.198;2022-10-30T05:38:05;92728.38;;;7.10;93.78
34506;BME280;20748;42.632;23.198;2022-10-30T05:40:38;92727.59;;;7.04;94.05
34506;BME280;20748;42.632;23.198;2022-10-30T05:43:11;92744.72;;;7.05;93.70
34506;BME280;20748;42.632;23.198;2022-10-30T05:45:47;92735.66;;;7.08;93.57
34506;BME280;20748;42.632;23.198;2022-10-30T05:48:19;92730.72;;;7.11;93.62
34506;BME280;20748;42.632;23.198;2022-10-30T05:50:54;92735.13;;;7.16;93.28
34506;BME280;20748;42.632;23.198;2022-10-30T05:59:27;92733.22;;;6.70;94.19
34506;BME280;20748;42.632;23.198;2022-10-30T06:02:00;92735.31;;;6.68;95.61
34506;BME280;20748;42.632;23.198;2022-10-30T06:04:33;92731.94;;;6.72;95.79
34506;BME280;20748;42.632;23.198;2022-10-30T06:07:09;92737.41;;;6.81;95.26
34506;BME280;20748;42.632;23.198;2022-10-30T06:09:42;92730.69;;;6.91;95.09
34506;BME280;20748;42.632;23.198;2022-10-30T06:12:32;92727.59;;;6.99;94.47
34506;BME280;20748;42.632;23.198;2022-10-30T06:15:17;92720.84;;;7.08;94.56
34506;BME280;20748;42.632;23.198;2022-10-30T06:17:49;92727.34;;;7.16;94.56
34506;BME280;20748;42.632;23.198;2022-10-30T06:20:28;92730.47;;;7.23;94.86
34506;BME280;20748;42.632;23.198;2022-10-30T06:23:19;92733.88;;;7.39;95.27
34506;BME280;20748;42.632;23.198;2022-10-30T06:25:56;92725.53;;;7.48;95.89
34506;BME280;20748;42.632;23.198;2022-10-30T06:28:38;92724.25;;;7.56;96.05
34506;BME280;20748;42.632;23.198;2022-10-30T06:31:11;92722.41;;;7.61;95.39
34506;BME280;20748;42.632;23.198;2022-10-30T06:33:44;92722.44;;;7.51;95.70
34506;BME280;20748;42.632;23.198;2022-10-30T06:36:18;92722.41;;;7.56;95.59
34506;BME280;20748;42.632;23.198;2022-10-30T06:38:51;92721.91;;;7.54;94.65
34506;BME280;20748;42.632;23.198;2022-10-30T06:41:29;92723.72;;;7.64;94.93
34506;BME280;20748;42.632;23.198;2022-10-30T06:44:34;92724.75;;;7.89;95.62
34506;BME280;20748;42.632;23.198;2022-10-30T06:47:07;92724.19;;;8.08;96.15
34506;BME280;20748;42.632;23.198;2022-10-30T06:49:40;92721.75;;;8.27;96.44
34506;BME280;20748;42.632;23.198;2022-10-30T06:52:12;92725.59;;;8.45;96.20
34506;BME280;20748;42.632;23.198;2022-10-30T06:54:45;92728.44;;;8.64;95.92
34506;BME280;20748;42.632;23.198;2022-10-30T06:57:41;92737.16;;;8.89;94.32
34506;BME280;20748;42.632;23.198;2022-10-30T07:00:32;92738.81;;;9.15;92.77
34506;BME280;20748;42.632;23.198;2022-10-30T07:03:24;92739.97;;;9.38;90.31
34506;BME280;20748;42.632;23.198;2022-10-30T07:05:57;92735.94;;;9.56;89.10
34506;BME280;20748;42.632;23.198;2022-10-30T07:08:30;92739.44;;;9.71;89.60
34506;BME280;20748;42.632;23.198;2022-10-30T07:11:03;92725.19;;;9.92;87.37
34506;BME280;20748;42.632;23.198;2022-10-30T07:13:38;92732.31;;;10.11;86.85
34506;BME280;20748;42.632;23.198;2022-10-30T07:16:29;92732.88;;;10.32;86.95
34506;BME280;20748;42.632;23.198;2022-10-30T07:19:03;92738.00;;;10.43;85.85
34506;BME280;20748;42.632;23.198;2022-10-30T07:21:38;92733.31;;;10.64;85.05
34506;BME280;20748;42.632;23.198;2022-10-30T07:24:10;92723.59;;;10.89;84.51
34506;BME280;20748;42.632;23.198;2022-10-30T07:27:21;92726.16;;;11.13;83.95
34506;BME280;20748;42.632;23.198;2022-10-30T07:30:16;92723.56;;;11.33;81.34
34506;BME280;20748;42.632;23.198;2022-10-30T07:33:09;92725.06;;;11.53;82.21
34506;BME280;20748;42.632;23.198;2022-10-30T07:36:09;92719.69;;;11.77;79.94
34506;BME280;20748;42.632;23.198;2022-10-30T07:38:55;92715.78;;;11.94;79.29
34506;BME280;20748;42.632;23.198;2022-10-30T07:41:50;92719.91;;;12.14;79.09
34506;BME280;20748;42.632;23.198;2022-10-30T07:44:50;92717.69;;;12.35;77.81
34506;BME280;20748;42.632;23.198;2022-10-30T07:47:29;92717.88;;;12.53;76.42
34506;BME280;20748;42.632;23.198;2022-10-30T07:50:12;92717.56;;;12.69;75.28
34506;BME280;20748;42.632;23.198;2022-10-30T07:52:45;92717.75;;;12.86;75.78
34506;BME280;20748;42.632;23.198;2022-10-30T07:55:20;92716.75;;;12.96;74.64
34506;BME280;20748;42.632;23.198;2022-10-30T07:57:53;92717.72;;;13.23;73.83
34506;BME280;20748;42.632;23.198;2022-10-30T08:00:44;92714.06;;;13.47;73.16
34506;BME280;20748;42.632;23.198;2022-10-30T08:03:26;92712.19;;;13.62;71.41
34506;BME280;20748;42.632;23.198;2022-10-30T08:06:18;92708.41;;;13.77;70.57
34506;BME280;20748;42.632;23.198;2022-10-30T08:08:58;92708.09;;;14.01;70.22
34506;BME280;20748;42.632;23.198;2022-10-30T08:11:32;92701.69;;;14.25;70.18
34506;BME280;20748;42.632;23.198;2022-10-30T08:14:05;92688.94;;;14.50;68.82
34506;BME280;20748;42.632;23.198;2022-10-30T08:16:37;92686.41;;;14.76;67.93
34506;BME280;20748;42.632;23.198;2022-10-30T08:19:10;92694.94;;;15.00;67.62
34506;BME280;20748;42.632;23.198;2022-10-30T08:21:42;92685.34;;;15.22;67.17
34506;BME280;20748;42.632;23.198;2022-10-30T08:24:21;92692.94;;;15.50;65.83
34506;BME280;20748;42.632;23.198;2022-10-30T08:26:55;92686.25;;;15.70;65.43
34506;BME280;20748;42.632;23.198;2022-10-30T08:29:28;92689.28;;;15.99;63.63
34506;BME280;20748;42.632;23.198;2022-10-30T08:32:01;92691.03;;;16.24;63.29
34506;BME280;20748;42.632;23.198;2022-10-30T08:35:05;92687.97;;;16.53;60.36
34506;BME280;20748;42.632;23.198;2022-10-30T08:37:38;92686.75;;;16.80;59.58
34506;BME280;20748;42.632;23.198;2022-10-30T08:40:11;92694.22;;;16.99;58.03
34506;BME280;20748;42.632;23.198;2022-10-30T08:43:01;92692.09;;;17.23;57.37
34506;BME280;20748;42.632;23.198;2022-10-30T08:45:33;92689.31;;;17.40;56.55
34506;BME280;20748;42.632;23.198;2022-10-30T08:48:14;92686.31;;;17.42;57.13
34506;BME280;20748;42.632;23.198;2022-10-30T08:50:48;92687.41;;;17.41;56.36
34506;BME280;20748;42.632;23.198;2022-10-30T08:53:28;92691.22;;;17.52;56.70
34506;BME280;20748;42.632;23.198;2022-10-30T08:56:01;92687.66;;;17.48;56.43
34506;BME280;20748;42.632;23.198;2022-10-30T08:58:49;92689.59;;;17.60;57.25
34506;BME280;20748;42.632;23.198;2022-10-30T09:01:21;92681.16;;;17.45;56.31
34506;BME280;20748;42.632;23.198;2022-10-30T09:04:12;92683.13;;;17.70;55.69
34506;BME280;20748;42.632;23.198;2022-10-30T09:07:03;92678.09;;;17.90;55.11
34506;BME280;20748;42.632;23.198;2022-10-30T09:09:41;92674.03;;;17.80;55.24
34506;BME280;20748;42.632;23.198;2022-10-30T09:12:16;92675.56;;;17.81;55.63
34506;BME280;20748;42.632;23.198;2022-10-30T09:14:50;92670.19;;;17.90;55.62
34506;BME280;20748;42.632;23.198;2022-10-30T09:17:23;92673.63;;;18.03;55.16
34506;BME280;20748;42.632;23.198;2022-10-30T09:19:56;92677.91;;;17.95;53.84
34506;BME280;20748;42.632;23.198;2022-10-30T09:22:39;92662.03;;;17.82;53.71
34506;BME280;20748;42.632;23.198;2022-10-30T09:25:12;92664.19;;;17.55;54.83
34506;BME280;20748;42.632;23.198;2022-10-30T09:27:54;92674.19;;;17.62;54.51
34506;BME280;20748;42.632;23.198;2022-10-30T09:30:30;92667.72;;;17.72;53.86
34506;BME280;20748;42.632;23.198;2022-10-30T09:33:04;92672.41;;;17.88;54.21
34506;BME280;20748;42.632;23.198;2022-10-30T09:35:56;92671.19;;;17.97;54.77
34506;BME280;20748;42.632;23.198;2022-10-30T09:38:28;92671.34;;;18.14;53.89
34506;BME280;20748;42.632;23.198;2022-10-30T09:41:15;92662.25;;;18.23;52.65
34506;BME280;20748;42.632;23.198;2022-10-30T09:44:05;92668.41;;;18.52;52.82
34506;BME280;20748;42.632;23.198;2022-10-30T09:46:48;92665.41;;;18.91;52.32
34506;BME280;20748;42.632;23.198;2022-10-30T09:49:34;92663.19;;;18.94;50.09
34506;BME280;20748;42.632;23.198;2022-10-30T09:52:24;92655.22;;;19.18;49.48
34506;BME280;20748;42.632;23.198;2022-10-30T09:55:12;92654.03;;;19.44;48.66
34506;BME280;20748;42.632;23.198;2022-10-30T09:57:54;92656.56;;;19.41;48.12
34506;BME280;20748;42.632;23.198;2022-10-30T10:00:35;92650.47;;;19.69;45.86
34506;BME280;20748;42.632;23.198;2022-10-30T10:03:26;92642.47;;;19.81;45.79
34506;BME280;20748;42.632;23.198;2022-10-30T10:06:24;92640.25;;;19.83;46.00
34506;BME280;20748;42.632;23.198;2022-10-30T10:09:14;92634.72;;;19.89;44.86
34506;BME280;20748;42.632;23.198;2022-10-30T10:12:08;92633.81;;;19.97;45.22
34506;BME280;20748;42.632;23.198;2022-10-30T10:14:44;92626.50;;;19.94;43.18
34506;BME280;20748;42.632;23.198;2022-10-30T10:17:24;92625.44;;;20.11;42.95
34506;BME280;20748;42.632;23.198;2022-10-30T10:20:00;92621.66;;;20.28;43.81
34506;BME280;20748;42.632;23.198;2022-10-30T10:22:38;92613.53;;;20.37;41.79
34506;BME280;20748;42.632;23.198;2022-10-30T10:25:13;92613.06;;;20.51;41.88
34506;BME280;20748;42.632;23.198;2022-10-30T10:27:59;92602.28;;;20.60;42.30
34506;BME280;20748;42.632;23.198;2022-10-30T10:30:41;92596.94;;;20.92;41.20
34506;BME280;20748;42.632;23.198;2022-10-30T10:33:41;92593.94;;;20.77;39.63
34506;BME280;20748;42.632;23.198;2022-10-30T10:36:24;92597.25;;;21.10;39.81
34506;BME280;20748;42.632;23.198;2022-10-30T10:39:06;92586.44;;;21.19;38.91
34506;BME280;20748;42.632;23.198;2022-10-30T10:41:58;92588.13;;;21.27;38.79
34506;BME280;20748;42.632;23.198;2022-10-30T10:44:41;92585.59;;;21.35;38.14
34506;BME280;20748;42.632;23.198;2022-10-30T10:47:29;92588.78;;;21.44;38.19
34506;BME280;20748;42.632;23.198;2022-10-30T10:50:17;92585.22;;;21.36;38.61
34506;BME280;20748;42.632;23.198;2022-10-30T10:52:52;92586.78;;;21.37;38.35
34506;BME280;20748;42.632;23.198;2022-10-30T10:55:31;92587.53;;;21.57;38.46
34506;BME280;20748;42.632;23.198;2022-10-30T10:58:09;92580.88;;;21.48;38.05
34506;BME280;20748;42.632;23.198;2022-10-30T11:00:45;92585.63;;;21.78;37.92
34506;BME280;20748;42.632;23.198;2022-10-30T11:03:20;92582.81;;;21.94;37.20
34506;BME280;20748;42.632;23.198;2022-10-30T11:05:57;92578.25;;;22.18;36.78
34506;BME280;20748;42.632;23.198;2022-10-30T11:08:32;92571.88;;;22.22;36.28
34506;BME280;20748;42.632;23.198;2022-10-30T11:11:06;92563.69;;;22.35;36.60
34506;BME280;20748;42.632;23.198;2022-10-30T11:13:40;92561.94;;;22.46;36.17
34506;BME280;20748;42.632;23.198;2022-10-30T11:16:20;92565.22;;;22.36;35.98
34506;BME280;20748;42.632;23.198;2022-10-30T11:18:58;92559.09;;;22.32;35.44
34506;BME280;20748;42.632;23.198;2022-10-30T11:21:37;92560.19;;;22.54;35.74
34506;BME280;20748;42.632;23.198;2022-10-30T11:24:26;92538.69;;;22.66;34.49
34506;BME280;20748;42.632;23.198;2022-10-30T11:27:15;92545.25;;;22.76;34.24
34506;BME280;20748;42.632;23.198;2022-10-30T11:29:51;92545.63;;;22.75;33.57
34506;BME280;20748;42.632;23.198;2022-10-30T11:32:27;92538.19;;;22.88;34.00
34506;BME280;20748;42.632;23.198;2022-10-30T11:35:01;92548.50;;;22.93;34.26
34506;BME280;20748;42.632;23.198;2022-10-30T11:37:36;92535.56;;;22.91;34.00
34506;BME280;20748;42.632;23.198;2022-10-30T11:40:16;92536.38;;;22.96;33.86
34506;BME280;20748;42.632;23.198;2022-10-30T11:42:54;92533.44;;;23.04;33.41
34506;BME280;20748;42.632;23.198;2022-10-30T11:45:32;92536.28;;;23.23;32.42
34506;BME280;20748;42.632;23.198;2022-10-30T11:48:10;92530.81;;;23.46;31.41
34506;BME280;20748;42.632;23.198;2022-10-30T11:50:47;92528.50;;;23.41;32.34
34506;BME280;20748;42.632;23.198;2022-10-30T11:53:24;92529.25;;;23.38;31.99
34506;BME280;20748;42.632;23.198;2022-10-30T11:56:03;92522.28;;;23.29;32.23
34506;BME280;20748;42.632;23.198;2022-10-30T11:58:45;92518.91;;;23.32;32.26
34506;BME280;20748;42.632;23.198;2022-10-30T12:01:22;92522.22;;;23.22;32.00
34506;BME280;20748;42.632;23.198;2022-10-30T12:03:55;92530.22;;;23.26;32.44
34506;BME280;20748;42.632;23.198;2022-10-30T12:06:28;92524.88;;;23.22;33.10
34506;BME280;20748;42.632;23.198;2022-10-30T12:09:03;92525.47;;;23.08;33.62
34506;BME280;20748;42.632;23.198;2022-10-30T12:11:42;92518.69;;;23.14;33.06
34506;BME280;20748;42.632;23.198;2022-10-30T12:14:18;92523.28;;;23.14;33.83
34506;BME280;20748;42.632;23.198;2022-10-30T12:16:52;92529.38;;;22.84;32.28
34506;BME280;20748;42.632;23.198;2022-10-30T12:19:26;92520.84;;;23.01;33.62
34506;BME280;20748;42.632;23.198;2022-10-30T12:21:58;92511.56;;;22.88;32.41
34506;BME280;20748;42.632;23.198;2022-10-30T12:24:35;92525.22;;;22.86;33.11
34506;BME280;20748;42.632;23.198;2022-10-30T12:27:12;92514.97;;;22.85;33.50
34506;BME280;20748;42.632;23.198;2022-10-30T12:30:02;92512.78;;;22.94;34.01
34506;BME280;20748;42.632;23.198;2022-10-30T12:32:46;92508.72;;;23.07;34.05
34506;BME280;20748;42.632;23.198;2022-10-30T12:35:41;92525.91;;;22.76;34.50
34506;BME280;20748;42.632;23.198;2022-10-30T12:38:19;92514.19;;;22.84;33.88
34506;BME280;20748;42.632;23.198;2022-10-30T12:41:04;92508.69;;;23.04;34.04
34506;BME280;20748;42.632;23.198;2022-10-30T12:43:38;92508.81;;;23.11;33.57
34506;BME280;20748;42.632;23.198;2022-10-30T12:46:20;92513.63;;;23.02;32.90
34506;BME280;20748;42.632;23.198;2022-10-30T12:49:05;92515.41;;;22.90;33.50
34506;BME280;20748;42.632;23.198;2022-10-30T12:51:44;92512.06;;;22.97;33.55
34506;BME280;20748;42.632;23.198;2022-10-30T12:54:24;92513.03;;;23.16;32.94
34506;BME280;20748;42.632;23.198;2022-10-30T12:57:07;92511.38;;;23.04;33.42
34506;BME280;20748;42.632;23.198;2022-10-30T12:59:48;92501.44;;;22.97;33.08
34506;BME280;20748;42.632;23.198;2022-10-30T13:02:29;92503.34;;;23.35;32.93
34506;BME280;20748;42.632;23.198;2022-10-30T13:05:21;92506.50;;;23.48;32.75
34506;BME280;20748;42.632;23.198;2022-10-30T13:08:10;92505.50;;;23.25;32.61
34506;BME280;20748;42.632;23.198;2022-10-30T13:10:47;92506.06;;;23.42;32.26
34506;BME280;20748;42.632;23.198;2022-10-30T13:13:24;92497.16;;;23.68;32.36
34506;BME280;20748;42.632;23.198;2022-10-30T13:16:01;92491.16;;;23.82;31.84
34506;BME280;20748;42.632;23.198;2022-10-30T13:18:34;92491.66;;;23.99;31.83
34506;BME280;20748;42.632;23.198;2022-10-30T13:21:18;92494.50;;;23.68;31.89
34506;BME280;20748;42.632;23.198;2022-10-30T13:23:55;92488.91;;;23.84;31.90
34506;BME280;20748;42.632;23.198;2022-10-30T13:26:34;92489.38;;;24.01;31.46
34506;BME280;20748;42.632;23.198;2022-10-30T13:29:16;92490.91;;;24.02;30.92
34506;BME280;20748;42.632;23.198;2022-10-30T13:32:02;92478.59;;;23.79;31.83
34506;BME280;20748;42.632;23.198;2022-10-30T13:34:43;92480.50;;;23.79;32.33
34506;BME280;20748;42.632;23.198;2022-10-30T13:37:24;92486.69;;;23.94;31.64
34506;BME280;20748;42.632;23.198;2022-10-30T13:40:08;92481.00;;;23.95;31.93
34506;BME280;20748;42.632;23.198;2022-10-30T13:42:53;92480.00;;;23.66;31.80
34506;BME280;20748;42.632;23.198;2022-10-30T13:45:51;92480.84;;;23.73;31.78
34506;BME280;20748;42.632;23.198;2022-10-30T13:48:36;92486.75;;;23.52;31.91
34506;BME280;20748;42.632;23.198;2022-10-30T13:51:24;92486.91;;;23.29;31.44
34506;BME280;20748;42.632;23.198;2022-10-30T13:54:03;92481.16;;;23.23;31.98
34506;BME280;20748;42.632;23.198;2022-10-30T13:56:38;92485.00;;;23.29;31.89
34506;BME280;20748;42.632;23.198;2022-10-30T13:59:21;92481.16;;;23.23;32.05